Time;durP1;ratioP1;P1;durP2;ratioP2;P2;SDS_P1;SDS_P2;PMS_P1;PMS_P2;Temp;Humidity;BMP_temperature;BMP_pressure;BME280_temperature;BME280_humidity;BME280_pressure;Samples;Min_cycle;Max_cycle;Signal;HPM_P1;HPM_P2
2023/06/07 00:02:11;;;;;;;2.53;2.10;;;;;;;19.39;56.64;96955.81;10451847;28;20049;-72
2023/06/07 00:07:32;;;;;;;1.92;1.70;;;;;;;19.39;56.48;96955.00;10457701;28;20048;-71
2023/06/07 00:12:54;;;;;;;2.03;1.70;;;;;;;19.38;56.53;96954.19;10457767;28;20068;-71
2023/06/07 00:18:15;;;;;;;2.30;1.80;;;;;;;19.37;56.42;96952.63;10443251;28;20045;-71
2023/06/07 00:23:35;;;;;;;2.45;1.85;;;;;;;19.38;56.42;96948.78;10456867;28;20045;-71
2023/06/07 00:28:54;;;;;;;2.35;2.00;;;;;;;19.37;56.68;96949.91;10456705;28;20501;-71
2023/06/07 00:34:15;;;;;;;2.75;1.77;;;;;;;19.37;56.50;96949.91;10456432;28;20159;-71
2023/06/07 00:39:35;;;;;;;2.00;1.80;;;;;;;19.36;56.47;96951.03;10456166;28;20048;-71
2023/06/07 00:44:54;;;;;;;2.05;1.50;;;;;;;19.36;56.53;96949.09;10456001;28;20049;-71
2023/06/07 00:50:14;;;;;;;2.85;1.70;;;;;;;19.35;56.36;96955.63;10455591;28;20049;-71
2023/06/07 00:55:37;;;;;;;2.00;1.80;;;;;;;19.36;56.63;96956.44;10455693;28;20060;-72
2023/06/07 01:00:59;;;;;;;2.30;1.70;;;;;;;19.35;56.46;96949.44;10453636;28;20041;-72
2023/06/07 01:06:22;;;;;;;2.45;1.70;;;;;;;19.35;56.52;96946.75;10470202;28;20378;-71
2023/06/07 01:11:45;;;;;;;2.13;1.80;;;;;;;19.35;56.52;96946.75;10468299;28;20052;-72
2023/06/07 01:17:05;;;;;;;1.95;1.60;;;;;;;19.34;56.54;96932.44;10454923;28;20064;-71
2023/06/07 01:22:27;;;;;;;2.17;1.63;;;;;;;19.34;56.75;96929.72;10468560;28;20037;-72
2023/06/07 01:27:50;;;;;;;1.88;1.70;;;;;;;19.33;56.58;96924.66;10454399;28;20390;-71
2023/06/07 01:33:09;;;;;;;1.65;1.55;;;;;;;19.32;56.66;96921.16;10454340;28;20059;-71
2023/06/07 01:38:30;;;;;;;1.95;1.80;;;;;;;19.34;56.64;96929.72;10427076;28;20079;-72
2023/06/07 01:43:50;;;;;;;2.33;1.60;;;;;;;19.33;56.64;96925.44;10454011;28;20045;-71
2023/06/07 01:49:09;;;;;;;2.00;1.80;;;;;;;19.33;56.53;96919.25;10453778;28;20051;-71
2023/06/07 01:54:29;;;;;;;2.70;1.70;;;;;;;19.32;56.60;96910.34;10439757;28;20040;-72
2023/06/07 02:00:01;;;;;;;1.70;1.60;;;;;;;19.34;56.61;96910.03;10468133;28;20045;-71
2023/06/07 02:05:25;;;;;;;1.98;1.60;;;;;;;19.34;56.58;96910.03;10468477;28;20405;-72
2023/06/07 02:10:45;;;;;;;1.83;1.70;;;;;;;19.32;56.68;96909.56;10439527;28;20092;-71
2023/06/07 02:16:05;;;;;;;1.75;1.55;;;;;;;19.32;56.62;96902.25;10453139;28;20045;-71
2023/06/07 02:21:25;;;;;;;2.03;1.50;;;;;;;19.31;56.41;96906.06;10472488;28;20056;-71
2023/06/07 02:26:44;;;;;;;2.10;1.90;;;;;;;19.30;56.58;96909.88;10461210;28;20064;-71
2023/06/07 02:32:06;;;;;;;1.60;1.50;;;;;;;19.31;56.66;96911.47;10461303;28;20048;-71
2023/06/07 02:37:25;;;;;;;1.95;1.58;;;;;;;19.30;56.59;96907.16;10447325;28;20045;-71
2023/06/07 02:42:45;;;;;;;1.70;1.60;;;;;;;19.31;56.25;96908.78;10446581;28;20048;-72
2023/06/07 02:48:06;;;;;;;2.00;1.80;;;;;;;19.31;56.54;96916.88;10446781;28;20064;-71
2023/06/07 02:53:26;;;;;;;2.22;1.73;;;;;;;19.31;56.48;96902.56;10446583;28;20060;-71
2023/06/07 02:58:45;;;;;;;1.83;1.50;;;;;;;19.31;56.50;96899.88;10460235;28;20389;-71
2023/06/07 03:04:05;;;;;;;2.13;1.67;;;;;;;19.30;56.45;96906.38;10448876;28;20053;-71
2023/06/07 03:09:25;;;;;;;2.65;1.83;;;;;;;19.30;56.47;96898.28;10459642;28;20056;-71
2023/06/07 03:14:45;;;;;;;2.22;1.60;;;;;;;19.30;56.64;96909.88;10445591;28;20045;-71
2023/06/07 03:20:08;;;;;;;1.67;1.58;;;;;;;19.29;56.65;96904.81;10459476;28;20036;-71
2023/06/07 03:25:28;;;;;;;1.90;1.70;;;;;;;19.29;56.59;96908.28;10473120;28;20059;-71
2023/06/07 03:30:48;;;;;;;1.60;1.50;;;;;;;19.29;56.60;96915.63;10458280;28;20045;-71
2023/06/07 03:36:12;;;;;;;1.67;1.58;;;;;;;19.28;56.36;96922.13;10445289;28;20507;-71
2023/06/07 03:41:35;;;;;;;2.20;1.50;;;;;;;19.28;56.46;96925.59;10444573;28;20413;-71
2023/06/07 03:46:59;;;;;;;1.55;1.45;;;;;;;19.27;56.46;96924.03;10431721;28;20068;-72
2023/06/07 03:52:22;;;;;;;1.60;1.50;;;;;;;19.27;56.47;96921.31;10444394;28;20436;-71
2023/06/07 03:57:42;;;;;;;1.60;1.50;;;;;;;19.28;56.47;96927.50;10444846;28;20045;-75
2023/06/07 04:03:01;;;;;;;2.00;1.80;;;;;;;19.27;56.47;96923.25;10421853;28;20045;-75
2023/06/07 04:08:22;;;;;;;1.85;1.40;;;;;;;19.27;56.56;96931.34;10472960;28;20106;-75
2023/06/07 04:13:42;;;;;;;2.10;1.83;;;;;;;19.27;56.46;96931.34;10457627;28;20409;-75
2023/06/07 04:19:02;;;;;;;1.63;1.52;;;;;;;19.27;56.37;96936.75;10472588;28;20041;-75
2023/06/07 04:24:25;;;;;;;1.50;1.40;;;;;;;19.26;56.48;96933.22;10457581;28;20041;-75
2023/06/07 04:29:48;;;;;;;2.15;1.70;;;;;;;19.27;56.50;96934.03;10457552;28;20045;-74
2023/06/07 04:35:09;;;;;;;1.75;1.60;;;;;;;19.29;56.59;96934.53;10456418;28;20051;-75
2023/06/07 04:40:30;;;;;;;2.20;1.60;;;;;;;19.31;56.40;96933.06;10442192;28;20041;-75
2023/06/07 04:45:55;;;;;;;1.65;1.55;;;;;;;19.31;56.59;96935.78;10454996;28;20040;-75
2023/06/07 04:51:20;;;;;;;1.48;1.38;;;;;;;19.33;56.76;96938.16;10439727;28;20057;-75
2023/06/07 04:56:43;;;;;;;3.75;2.13;;;;;;;19.33;56.56;96928.16;10441306;28;20044;-75
2023/06/07 05:02:03;;;;;;;1.80;1.70;;;;;;;19.35;56.67;96934.03;10441568;28;20052;-74
2023/06/07 05:07:26;;;;;;;2.55;1.50;;;;;;;19.38;57.22;96929.88;10440799;28;20041;-75
2023/06/07 05:12:48;;;;;;;9.90;8.93;;;;;;;19.35;59.78;96942.13;10441376;28;20087;-75
2023/06/07 05:18:09;;;;;;;14.65;10.00;;;;;;;19.27;60.79;96948.34;10441051;28;20041;-75
2023/06/07 05:23:29;;;;;;;12.88;10.13;;;;;;;19.19;61.60;96941.03;10413248;28;20060;-75
2023/06/07 05:28:51;;;;;;;11.18;10.02;;;;;;;19.18;62.43;96950.25;10440428;28;20067;-81
2023/06/07 05:34:11;;;;;;;9.63;8.73;;;;;;;19.21;61.09;96949.63;10454736;28;20040;-83
2023/06/07 05:39:32;;;;;;;8.10;6.78;;;;;;;19.28;59.96;96946.44;10440878;28;20044;-75
2023/06/07 05:44:54;;;;;;;6.50;5.80;;;;;;;19.33;58.93;96940.88;10440872;28;20036;-79
2023/06/07 05:50:14;;;;;;;8.40;6.07;;;;;;;19.36;58.37;96951.03;10468824;28;20124;-76
2023/06/07 05:55:36;;;;;;;6.93;5.40;;;;;;;19.37;58.18;96955.31;10453794;28;20045;-76
2023/06/07 06:00:55;;;;;;;10.63;5.80;;;;;;;19.41;58.12;96960.88;10437139;28;20095;-73
2023/06/07 06:06:17;;;;;;;12.15;6.82;;;;;;;19.44;57.98;96963.72;10454025;28;20045;-73
2023/06/07 06:11:36;;;;;;;11.00;6.97;;;;;;;19.46;58.08;96955.31;10440169;28;20162;-73
2023/06/07 06:16:56;;;;;;;13.40;7.63;;;;;;;19.48;58.06;96967.41;10453492;28;20045;-73
2023/06/07 06:22:16;;;;;;;16.50;7.85;;;;;;;19.50;57.91;96969.75;10435617;28;20040;-73
2023/06/07 06:27:36;;;;;;;16.70;8.27;;;;;;;19.52;57.98;96967.53;10453321;28;20041;-73
2023/06/07 06:32:55;;;;;;;18.05;8.70;;;;;;;19.52;58.14;96971.06;10453198;28;20045;-73
2023/06/07 06:38:15;;;;;;;16.58;7.70;;;;;;;19.56;57.91;96976.59;10453098;28;20044;-73
2023/06/07 06:43:35;;;;;;;18.00;8.93;;;;;;;19.56;57.89;96982.81;10453197;28;20037;-73
2023/06/07 06:48:54;;;;;;;19.02;8.07;;;;;;;19.59;57.87;96980.59;10439340;28;20448;-73
2023/06/07 06:54:14;;;;;;;14.65;7.75;;;;;;;19.60;57.87;96976.75;10438897;28;20039;-73
2023/06/07 06:59:34;;;;;;;15.13;7.75;;;;;;;19.61;57.87;96972.94;10439298;28;20481;-73
2023/06/07 07:04:55;;;;;;;13.82;7.32;;;;;;;19.63;57.78;96982.31;10439002;28;20049;-73
2023/06/07 07:10:14;;;;;;;17.40;8.13;;;;;;;19.65;57.68;96987.41;10445834;28;20102;-73
2023/06/07 07:15:34;;;;;;;15.43;7.53;;;;;;;19.67;57.52;96990.56;10460206;28;20098;-73
2023/06/07 07:20:54;;;;;;;15.93;7.70;;;;;;;19.67;57.46;96999.47;10460046;28;20083;-73
2023/06/07 07:26:14;;;;;;;13.00;7.60;;;;;;;19.69;57.67;96997.25;10459804;28;20037;-73
2023/06/07 07:31:33;;;;;;;12.75;6.90;;;;;;;19.71;57.55;96999.63;10474568;28;20404;-73
2023/06/07 07:36:55;;;;;;;14.27;7.32;;;;;;;19.72;57.49;96995.88;10459515;28;20045;-73
2023/06/07 07:42:15;;;;;;;13.43;7.65;;;;;;;19.72;57.25;96999.34;10445407;28;20064;-73
2023/06/07 07:47:34;;;;;;;12.48;6.95;;;;;;;19.74;57.42;97007.16;10459019;28;20041;-73
2023/06/07 07:52:54;;;;;;;14.63;7.75;;;;;;;19.75;57.32;97003.31;10458782;28;20044;-73
2023/06/07 07:58:14;;;;;;;12.57;6.55;;;;;;;19.76;57.41;97010.31;10445227;28;20489;-73
2023/06/07 08:03:33;;;;;;;13.88;7.72;;;;;;;19.77;57.35;97008.41;10430304;28;20416;-73
2023/06/07 08:08:53;;;;;;;16.13;7.72;;;;;;;19.77;57.34;97006.50;10457959;28;20440;-73
2023/06/07 08:14:13;;;;;;;9.85;5.90;;;;;;;19.78;57.31;97005.38;10458957;28;20044;-73
2023/06/07 08:19:33;;;;;;;12.50;7.10;;;;;;;19.79;57.25;97001.56;10443343;28;20445;-73
2023/06/07 08:24:52;;;;;;;10.27;6.47;;;;;;;19.79;57.15;97006.97;10469131;28;20451;-73
2023/06/07 08:30:13;;;;;;;13.40;7.00;;;;;;;19.79;57.13;96996.16;10498629;28;20048;-73
2023/06/07 08:35:33;;;;;;;10.15;5.93;;;;;;;19.81;57.16;97009.34;10498645;28;20041;-73
2023/06/07 08:40:58;;;;;;;13.90;6.93;;;;;;;19.81;57.12;97006.66;10498192;28;20055;-73
2023/06/07 08:46:20;;;;;;;11.60;6.93;;;;;;;19.82;57.15;97000.94;10498220;28;20041;-73
2023/06/07 08:51:42;;;;;;;15.32;7.40;;;;;;;19.82;57.19;96995.53;10483670;28;20063;-73
2023/06/07 08:57:02;;;;;;;13.35;6.65;;;;;;;19.82;57.22;96995.53;10469728;28;20404;-73
2023/06/07 09:02:24;;;;;;;10.80;6.43;;;;;;;19.83;57.31;97005.22;10491810;28;20064;-71
2023/06/07 09:07:43;;;;;;;11.52;7.32;;;;;;;19.83;57.23;97005.22;10497600;28;20120;-71
2023/06/07 09:13:05;;;;;;;9.10;5.53;;;;;;;19.84;57.36;96998.69;10483149;28;20047;-71
2023/06/07 09:18:40;;;;;;;10.18;6.40;;;;;;;19.85;57.29;96999.47;10496791;28;20044;-71
2023/06/07 09:24:00;;;;;;;8.45;6.25;;;;;;;19.84;57.39;96998.69;10497529;28;20041;-71
2023/06/07 09:29:19;;;;;;;10.60;6.85;;;;;;;19.83;57.18;96999.78;10496261;28;20488;-71
2023/06/07 09:34:39;;;;;;;9.32;6.30;;;;;;;19.84;57.05;96993.28;10496749;28;20075;-71
2023/06/07 09:40:07;;;;;;;8.13;4.75;;;;;;;19.85;57.23;96994.06;10482958;28;20060;-71
2023/06/07 09:45:27;;;;;;;10.05;6.43;;;;;;;19.85;57.19;97002.97;10496813;28;20043;-71
2023/06/07 09:50:59;;;;;;;10.57;5.90;;;;;;;19.85;57.14;96994.88;10496509;28;20049;-71
2023/06/07 09:56:21;;;;;;;10.40;6.30;;;;;;;19.86;57.00;97001.09;10482512;28;20401;-71
2023/06/07 10:01:52;;;;;;;9.63;6.20;;;;;;;19.85;57.04;96994.88;10478361;28;20078;-72
2023/06/07 10:07:12;;;;;;;11.57;6.10;;;;;;;19.85;57.04;96989.44;10497868;28;20044;-71
2023/06/07 10:12:35;;;;;;;9.80;5.90;;;;;;;19.85;56.97;96989.44;10482151;28;20051;-71
2023/06/07 10:18:11;;;;;;;10.57;6.38;;;;;;;19.85;56.95;96989.44;10496329;28;20086;-72
2023/06/07 10:23:57;;;;;;;10.90;5.97;;;;;;;19.84;57.02;96990.59;10495918;28;20052;-71
2023/06/07 10:29:29;;;;;;;9.88;6.22;;;;;;;19.84;57.10;96985.19;10495820;28;20496;-71
2023/06/07 10:34:48;;;;;;;10.05;5.55;;;;;;;19.84;56.89;96985.19;10467536;28;20094;-71
2023/06/07 10:40:12;;;;;;;11.75;5.93;;;;;;;19.85;57.01;96983.25;10495393;28;20105;-71
2023/06/07 10:45:32;;;;;;;10.10;5.85;;;;;;;19.84;57.02;96982.47;10502982;28;20045;-72
2023/06/07 10:50:52;;;;;;;7.53;5.47;;;;;;;19.84;56.99;96982.47;10475290;28;20094;-71
2023/06/07 10:56:31;;;;;;;8.35;5.85;;;;;;;19.84;57.08;96982.47;10488834;28;20041;-71
2023/06/07 11:01:54;;;;;;;7.47;5.45;;;;;;;19.85;57.08;96984.03;10498202;28;20052;-74
2023/06/07 11:07:23;;;;;;;8.45;5.45;;;;;;;19.85;57.01;96975.94;10488404;28;20435;-74
2023/06/07 11:12:46;;;;;;;8.93;5.65;;;;;;;19.85;57.04;96967.03;10501944;28;20051;-74
2023/06/07 11:18:08;;;;;;;9.52;5.47;;;;;;;19.85;56.92;96972.44;10516767;28;20051;-74
2023/06/07 11:23:31;;;;;;;7.13;5.13;;;;;;;19.86;56.98;96968.63;10501637;28;20044;-74
2023/06/07 11:28:52;;;;;;;7.93;5.47;;;;;;;19.85;57.08;96973.22;10501081;28;20045;-74
2023/06/07 11:34:14;;;;;;;6.82;5.38;;;;;;;19.86;57.02;96969.44;10501122;28;20541;-74
2023/06/07 11:39:34;;;;;;;9.07;5.40;;;;;;;19.86;57.01;96964.03;10487143;28;20044;-74
2023/06/07 11:44:54;;;;;;;7.15;5.30;;;;;;;19.86;57.14;96960.53;10500433;28;20123;-74
2023/06/07 11:50:14;;;;;;;7.93;5.60;;;;;;;19.86;57.19;96955.13;10500221;28;20507;-74
2023/06/07 11:55:34;;;;;;;8.15;5.63;;;;;;;19.86;57.21;96950.50;10472345;28;20078;-74
2023/06/07 12:00:55;;;;;;;7.00;4.65;;;;;;;19.86;57.12;96947.81;10498203;28;20489;-74
2023/06/07 12:06:15;;;;;;;7.20;5.20;;;;;;;19.87;57.16;96949.38;10485687;28;20037;-74
2023/06/07 12:11:37;;;;;;;7.40;5.05;;;;;;;19.86;57.27;96945.09;10499479;28;20051;-74
2023/06/07 12:16:57;;;;;;;6.18;4.85;;;;;;;19.86;57.08;96942.38;10485541;28;20105;-74
2023/06/07 12:22:17;;;;;;;6.25;4.40;;;;;;;19.86;57.20;96942.38;10499065;28;20049;-74
2023/06/07 12:27:37;;;;;;;8.30;5.25;;;;;;;19.87;57.10;96935.06;10498864;28;20040;-74
2023/06/07 12:32:58;;;;;;;6.65;4.97;;;;;;;19.87;57.24;96933.16;10484333;28;20126;-74
2023/06/07 12:38:21;;;;;;;6.88;4.93;;;;;;;19.87;57.21;96932.38;10498450;28;20040;-74
2023/06/07 12:43:47;;;;;;;6.80;4.55;;;;;;;19.86;57.32;96925.38;10498428;28;20094;-74
2023/06/07 12:49:07;;;;;;;6.97;4.90;;;;;;;19.87;57.07;96930.44;10483859;28;20127;-74
2023/06/07 12:54:27;;;;;;;6.10;4.50;;;;;;;19.87;57.15;96930.44;10483661;28;20044;-74
2023/06/07 12:59:46;;;;;;;9.38;4.57;;;;;;;19.88;57.19;96929.34;10497481;28;20044;-74
2023/06/07 13:05:08;;;;;;;5.18;3.90;;;;;;;19.87;57.21;96922.34;10496387;28;20136;-74
2023/06/07 13:10:28;;;;;;;6.22;4.70;;;;;;;19.88;57.15;96929.34;10483275;28;20056;-74
2023/06/07 13:15:49;;;;;;;6.32;4.85;;;;;;;19.86;57.24;96931.56;10483858;28;20048;-74
2023/06/07 13:21:08;;;;;;;6.13;4.35;;;;;;;19.87;57.09;96933.16;10496676;28;20411;-74
2023/06/07 13:26:28;;;;;;;6.35;4.38;;;;;;;19.87;57.19;96926.97;10482558;28;20043;-74
2023/06/07 13:31:48;;;;;;;5.75;4.60;;;;;;;19.88;57.06;96933.97;10496420;28;20048;-74
2023/06/07 13:37:07;;;;;;;5.80;4.30;;;;;;;19.87;57.04;96930.44;10496394;28;20118;-74
2023/06/07 13:42:27;;;;;;;6.18;4.38;;;;;;;19.87;56.97;96932.38;10496146;28;20044;-74
2023/06/07 13:47:46;;;;;;;6.32;4.38;;;;;;;19.86;57.22;96926.16;10495910;28;20040;-74
2023/06/07 13:53:06;;;;;;;5.65;4.30;;;;;;;19.87;57.07;96918.84;10495714;28;20105;-74
2023/06/07 13:58:31;;;;;;;5.18;4.38;;;;;;;19.87;57.29;96922.34;10511393;28;20045;-74
2023/06/07 14:03:51;;;;;;;7.50;4.47;;;;;;;19.87;57.29;96916.16;10472490;28;20052;-74
2023/06/07 14:09:11;;;;;;;5.65;3.97;;;;;;;19.87;57.29;96914.22;10510559;28;20476;-75
2023/06/07 14:14:31;;;;;;;4.80;4.20;;;;;;;19.89;57.37;96919.31;10510508;28;20045;-75
2023/06/07 14:19:51;;;;;;;4.95;3.60;;;;;;;19.88;57.19;96915.81;10518998;28;20036;-74
2023/06/07 14:25:11;;;;;;;4.43;4.00;;;;;;;19.89;57.39;96901.19;10489654;28;20045;-74
2023/06/07 14:30:30;;;;;;;4.78;4.28;;;;;;;19.90;57.46;96907.41;10488947;28;20412;-75
2023/06/07 14:35:51;;;;;;;6.97;4.13;;;;;;;19.90;57.37;96900.06;10502066;28;20040;-75
2023/06/07 14:41:11;;;;;;;7.40;4.68;;;;;;;19.90;57.67;96905.47;10516023;28;20041;-75
2023/06/07 14:46:30;;;;;;;4.43;4.03;;;;;;;19.91;57.47;96917.88;10516075;28;20045;-75
2023/06/07 14:51:49;;;;;;;6.40;4.18;;;;;;;19.91;57.53;96904.34;10517332;28;20450;-75
2023/06/07 14:57:11;;;;;;;4.78;4.20;;;;;;;19.91;57.48;96906.28;10516296;28;20077;-74
2023/06/07 15:02:30;;;;;;;4.43;4.03;;;;;;;19.89;57.14;96903.88;10482001;28;20385;-75
2023/06/07 15:07:50;;;;;;;5.15;4.38;;;;;;;19.89;57.17;96893.06;10501681;28;20462;-75
2023/06/07 15:13:09;;;;;;;14.35;4.38;;;;;;;19.89;58.26;96894.97;10501382;28;20040;-75
2023/06/07 15:18:29;;;;;;;7.35;4.55;;;;;;;19.91;58.40;96885.41;10500864;28;20044;-75
2023/06/07 15:23:49;;;;;;;4.57;4.18;;;;;;;19.91;58.33;96895.44;10500439;28;20049;-74
2023/06/07 15:29:09;;;;;;;4.88;4.30;;;;;;;19.90;58.17;96894.66;10458362;28;20044;-75
2023/06/07 15:34:30;;;;;;;4.50;4.10;;;;;;;19.90;57.68;96894.66;10500537;28;20059;-75
2023/06/07 15:39:49;;;;;;;6.40;4.13;;;;;;;19.89;57.68;96890.38;10500415;28;20043;-75
2023/06/07 15:45:09;;;;;;;5.05;3.85;;;;;;;19.88;57.80;96891.50;10469863;28;20068;-75
2023/06/07 15:50:29;;;;;;;5.80;4.13;;;;;;;19.86;57.82;96885.63;10499946;28;20051;-75
2023/06/07 15:55:49;;;;;;;4.32;3.92;;;;;;;19.88;57.61;96891.50;10471649;28;20101;-74
2023/06/07 16:01:09;;;;;;;5.55;4.28;;;;;;;19.88;57.98;96877.97;10483948;28;20114;-74
2023/06/07 16:06:29;;;;;;;4.57;4.05;;;;;;;19.89;58.07;96874.13;10499197;28;20062;-75
2023/06/07 16:11:48;;;;;;;4.85;4.45;;;;;;;19.89;58.22;96870.66;10498837;28;20535;-74
2023/06/07 16:17:08;;;;;;;5.32;4.07;;;;;;;19.87;58.07;96872.88;10498668;28;20051;-74
2023/06/07 16:22:27;;;;;;;5.05;4.07;;;;;;;19.87;58.19;96881.78;10470283;28;20481;-74
2023/06/07 16:27:47;;;;;;;4.30;3.58;;;;;;;19.89;58.56;96884.16;10513446;28;20420;-74
2023/06/07 16:33:06;;;;;;;5.53;4.25;;;;;;;19.88;57.94;96872.56;10499853;28;20044;-74
2023/06/07 16:38:26;;;;;;;5.93;4.28;;;;;;;19.87;58.20;96884.47;10513466;28;20522;-74
2023/06/07 16:43:45;;;;;;;4.32;3.92;;;;;;;19.88;58.15;96882.59;10483701;28;20101;-74
2023/06/07 16:49:06;;;;;;;4.13;3.80;;;;;;;19.87;58.39;96884.47;10469327;28;20524;-74
2023/06/07 16:54:26;;;;;;;4.50;4.10;;;;;;;19.87;57.88;96899.91;10497108;28;20404;-74
2023/06/07 16:59:45;;;;;;;5.28;4.32;;;;;;;19.86;58.06;96888.31;10511941;28;20408;-74
2023/06/07 17:05:06;;;;;;;5.22;4.03;;;;;;;19.86;58.21;96901.84;10483504;28;20056;-74
2023/06/07 17:10:33;;;;;;;4.60;4.13;;;;;;;19.85;57.95;96908.34;10510438;28;20044;-74
2023/06/07 17:15:52;;;;;;;4.45;4.00;;;;;;;19.85;57.96;96918.38;10482858;28;20393;-74
2023/06/07 17:21:12;;;;;;;7.28;4.10;;;;;;;19.84;58.15;96987.88;10496111;28;20416;-74
2023/06/07 17:26:32;;;;;;;4.93;3.70;;;;;;;19.84;57.84;96971.66;10510988;28;20041;-75
2023/06/07 17:31:52;;;;;;;4.10;3.50;;;;;;;19.81;56.83;96939.84;10495467;28;20485;-74
2023/06/07 17:37:14;;;;;;;7.50;3.58;;;;;;;19.74;57.35;96923.34;10510553;28;20052;-74
2023/06/07 17:42:33;;;;;;;6.70;3.92;;;;;;;19.77;57.25;96908.38;10495620;28;20041;-74
2023/06/07 17:47:53;;;;;;;5.70;3.65;;;;;;;19.77;57.22;96914.59;10495130;28;20037;-74
2023/06/07 17:53:13;;;;;;;4.63;3.70;;;;;;;19.79;57.32;96911.56;10508595;28;20051;-75
2023/06/07 17:58:35;;;;;;;4.88;4.03;;;;;;;19.78;57.24;96924.28;10467894;28;20044;-71
2023/06/07 18:03:56;;;;;;;5.25;3.97;;;;;;;19.79;57.31;96930.50;10482831;28;20048;-71
2023/06/07 18:09:16;;;;;;;4.15;3.33;;;;;;;19.80;57.36;96937.47;10494940;28;20058;-71
2023/06/07 18:14:35;;;;;;;3.65;3.35;;;;;;;19.79;57.30;96931.28;10494540;28;20052;-71
2023/06/07 18:19:54;;;;;;;4.38;3.50;;;;;;;19.78;57.59;96935.09;10509560;28;20040;-71
2023/06/07 18:25:14;;;;;;;4.47;3.60;;;;;;;19.79;57.21;96931.28;10480519;28;20052;-71
2023/06/07 18:30:36;;;;;;;3.55;3.25;;;;;;;19.79;57.18;96923.16;10480126;28;20078;-71
2023/06/07 18:35:56;;;;;;;3.50;3.20;;;;;;;19.78;57.27;96912.66;10480922;28;20044;-71
2023/06/07 18:41:15;;;;;;;3.72;3.13;;;;;;;19.79;57.31;96911.56;10494213;28;20040;-71
2023/06/07 18:46:34;;;;;;;4.25;3.33;;;;;;;19.79;57.12;96917.75;10509271;28;20037;-71
2023/06/07 18:51:54;;;;;;;4.47;3.60;;;;;;;19.79;57.19;96916.97;10480223;28;20408;-71
2023/06/07 18:57:13;;;;;;;4.30;3.42;;;;;;;19.77;57.12;96911.88;10508081;28;20037;-71
2023/06/07 19:02:33;;;;;;;4.03;3.55;;;;;;;19.77;57.37;96916.50;10488810;28;20056;-72
2023/06/07 19:07:53;;;;;;;6.03;4.05;;;;;;;19.76;57.70;96915.72;10516886;28;20036;-72
2023/06/07 19:13:13;;;;;;;3.67;3.10;;;;;;;19.77;57.85;96917.28;10487802;28;20165;-71
2023/06/07 19:18:33;;;;;;;9.93;3.55;;;;;;;19.78;58.09;96924.28;10501569;28;20047;-71
2023/06/07 19:23:53;;;;;;;8.30;3.75;;;;;;;19.81;58.21;96920.13;10501438;28;20160;-72
2023/06/07 19:29:13;;;;;;;6.10;3.70;;;;;;;19.80;58.21;96930.16;10515939;28;20557;-71
2023/06/07 19:34:36;;;;;;;4.78;3.90;;;;;;;19.82;58.44;96935.25;10486839;28;20051;-72
2023/06/07 19:39:55;;;;;;;4.63;3.45;;;;;;;19.81;58.42;96928.25;10500588;28;20037;-72
2023/06/07 19:45:15;;;;;;;4.60;3.50;;;;;;;19.81;58.21;96933.66;10500426;28;20450;-72
2023/06/07 19:50:34;;;;;;;4.22;3.53;;;;;;;19.79;58.13;96936.69;10500328;28;20044;-72
2023/06/07 19:55:55;;;;;;;7.85;3.90;;;;;;;19.81;58.15;96939.84;10499990;28;20533;-72
2023/06/07 20:01:14;;;;;;;5.18;3.60;;;;;;;19.79;58.17;96935.91;10498025;28;20058;-72
2023/06/07 20:06:34;;;;;;;4.88;4.00;;;;;;;19.79;58.35;96931.28;10485744;28;20384;-72
2023/06/07 20:11:54;;;;;;;3.88;3.33;;;;;;;19.79;58.20;96931.28;10499615;28;20044;-72
2023/06/07 20:17:13;;;;;;;3.42;3.10;;;;;;;19.79;58.23;96925.88;10498936;28;20098;-72
2023/06/07 20:22:33;;;;;;;3.75;3.22;;;;;;;19.79;58.31;96928.56;10484945;28;20048;-72
2023/06/07 20:27:53;;;;;;;4.82;3.60;;;;;;;19.79;58.31;96931.28;10498939;28;20044;-72
2023/06/07 20:33:14;;;;;;;4.57;3.10;;;;;;;19.78;58.25;96932.41;10513829;28;20051;-72
2023/06/07 20:38:34;;;;;;;5.25;3.65;;;;;;;19.79;58.31;96925.88;10512598;28;20040;-71
2023/06/07 20:43:54;;;;;;;5.45;3.30;;;;;;;19.79;58.23;96925.88;10484218;28;20041;-71
2023/06/07 20:49:14;;;;;;;4.18;2.88;;;;;;;19.79;58.39;96925.09;10483945;28;20102;-72
2023/06/07 20:54:33;;;;;;;3.63;3.15;;;;;;;19.80;58.35;96915.84;10497903;28;20051;-71
2023/06/07 20:59:53;;;;;;;4.95;2.97;;;;;;;19.79;58.20;96928.56;10512702;28;20032;-71
2023/06/07 21:05:13;;;;;;;3.53;3.15;;;;;;;19.80;58.13;96926.66;10483499;28;20121;-71
2023/06/07 21:10:32;;;;;;;4.13;3.35;;;;;;;19.78;58.32;96924.28;10512166;28;20048;-71
2023/06/07 21:15:51;;;;;;;3.45;3.15;;;;;;;19.79;58.06;96931.28;10497068;28;20040;-71
2023/06/07 21:21:11;;;;;;;3.90;3.45;;;;;;;19.79;58.31;96933.97;10496883;28;20044;-71
2023/06/07 21:26:31;;;;;;;3.72;2.80;;;;;;;19.78;58.08;96937.81;10495952;28;20052;-71
2023/06/07 21:31:50;;;;;;;3.45;3.10;;;;;;;19.78;57.95;96943.22;10496299;28;20049;-71
2023/06/07 21:37:10;;;;;;;3.35;3.05;;;;;;;19.78;58.26;96929.69;10482447;28;20044;-71
2023/06/07 21:42:30;;;;;;;4.80;3.15;;;;;;;19.79;58.19;96946.72;10482040;28;20094;-71
2023/06/07 21:47:49;;;;;;;4.07;3.10;;;;;;;19.80;58.20;96937.47;10496440;28;20037;-71
2023/06/07 21:53:09;;;;;;;3.83;3.10;;;;;;;19.78;58.25;96935.09;10495737;28;20056;-71
2023/06/07 21:58:29;;;;;;;4.03;2.85;;;;;;;19.79;58.05;96946.72;10481553;28;20469;-71
2023/06/07 22:03:49;;;;;;;3.13;2.80;;;;;;;19.77;57.87;96944.31;10471990;28;20053;-71
2023/06/07 22:09:08;;;;;;;3.03;2.63;;;;;;;19.77;57.95;96955.13;10495345;28;20415;-71
2023/06/07 22:14:32;;;;;;;3.35;2.97;;;;;;;19.77;58.04;96954.34;10481302;28;20112;-72
2023/06/07 22:19:54;;;;;;;3.20;2.90;;;;;;;19.76;57.61;96958.97;10495549;28;20037;-72
2023/06/07 22:25:13;;;;;;;2.70;2.50;;;;;;;19.75;57.82;96958.16;10495457;28;20036;-72
2023/06/07 22:30:38;;;;;;;3.92;2.67;;;;;;;19.75;57.88;96954.66;10494974;28;20045;-72
2023/06/07 22:35:58;;;;;;;3.17;2.65;;;;;;;19.74;57.77;96936.88;10495167;28;20510;-72
2023/06/07 22:41:19;;;;;;;2.95;2.65;;;;;;;19.74;57.70;96936.88;10503002;28;20051;-72
2023/06/07 22:46:39;;;;;;;3.20;2.90;;;;;;;19.73;57.69;96932.56;10488874;28;20464;-71
2023/06/07 22:51:59;;;;;;;3.20;2.83;;;;;;;19.73;57.59;96927.94;10474742;28;20462;-72
2023/06/07 22:57:18;;;;;;;3.10;2.80;;;;;;;19.74;57.66;96924.13;10488719;28;20041;-72
2023/06/07 23:02:38;;;;;;;4.63;2.90;;;;;;;19.73;57.55;96919.06;10481646;28;20520;-72
2023/06/07 23:07:57;;;;;;;4.22;2.60;;;;;;;19.72;57.60;96915.56;10487996;28;20124;-72
2023/06/07 23:13:19;;;;;;;3.38;2.63;;;;;;;19.73;57.43;96910.94;10502022;28;20051;-72
2023/06/07 23:18:39;;;;;;;2.97;2.63;;;;;;;19.73;57.52;96910.94;10487861;28;20051;-72
2023/06/07 23:23:59;;;;;;;3.67;2.50;;;;;;;19.73;57.46;96906.31;10474066;28;20049;-72
2023/06/07 23:29:18;;;;;;;2.90;2.60;;;;;;;19.71;57.56;96902.31;10442837;28;20044;-72
2023/06/07 23:34:38;;;;;;;3.10;2.80;;;;;;;19.72;57.32;96898.56;10500841;28;20546;-72
2023/06/07 23:39:58;;;;;;;2.95;2.50;;;;;;;19.72;57.36;96893.94;10472949;28;20118;-72
2023/06/07 23:45:20;;;;;;;2.78;2.50;;;;;;;19.71;57.36;96897.75;10500612;28;20412;-72
2023/06/07 23:50:40;;;;;;;2.78;2.55;;;;;;;19.70;57.44;96879.13;10499767;28;20055;-72
2023/06/07 23:56:00;;;;;;;2.60;2.40;;;;;;;19.71;57.51;96880.72;10485476;28;20052;-72
